»·PEaware :: N951TA L88-KMRY

N951TA :: L88-KMRY

FLIGHT INFORMATION

Flight Status: Arrived
Operator: Privately registered:
United States
More flights under this callsign
Pilot: John H. (7647)
Aircraft: CESSNA 172 SKYHAWK
(C172)
More flights by this aircraft type
Origin: L88 New Cuyama
United States
Destination: KMRY Monterey Peninsula
United States
More flights between these airports :: More routes between these airports
Route: FLW PRB
File this flight plan on PilotEdge
Remarks:
Altitude:
(Current/Filed)
4,500ft
Speed:
(Current/Filed)
120kts
Departed: 25-Dec-18 11:51 AM
Arrived: 25-Dec-18 01:22 PM
Distance/Time
Traveled:
144nm/1:31
Distance/Time
To Go:
Arrived

Flight Plot

Page will automatically refresh every two minutes.

Flight plan parsing failed; only flown route is shown


Map Options




Map Legend


Flown Route
Filed Route
Departure Airport
Arrival Airport
Navaid (VOR, NDB)
Fix

Horizontal Profiles

Position Reports

Time Latitude Longitude Heading Altitude Ground
Speed
25-Dec-18 11:43 34.942383 -119.690533 204 2164ft 0kts
25-Dec-18 11:44 34.942383 -119.690533 204 2164ft 0kts
25-Dec-18 11:45 34.942383 -119.690533 204 2164ft 0kts
25-Dec-18 11:46 34.942077 -119.690618 165 2165ft 5kts
25-Dec-18 11:47 34.940325 -119.686509 116 2173ft 16kts
25-Dec-18 11:48 34.938664 -119.682477 117 2198ft 11kts
25-Dec-18 11:49 34.937613 -119.679847 295 2211ft 3kts
25-Dec-18 11:50 34.940575 -119.687445 296 2318ft 72kts
25-Dec-18 11:51 34.949543 -119.707719 305 3166ft 65kts
25-Dec-18 11:52 34.961549 -119.724857 310 3900ft 65kts
25-Dec-18 11:53 34.975522 -119.740883 320 4451ft 79kts
25-Dec-18 11:54 34.993096 -119.762709 301 4541ft 104kts
25-Dec-18 11:55 35.005894 -119.794233 300 4302ft 107kts
25-Dec-18 11:56 35.018133 -119.826129 301 4250ft 103kts
25-Dec-18 11:57 35.035267 -119.851987 311 4400ft 97kts
25-Dec-18 11:58 35.056194 -119.872127 328 4513ft 97kts
25-Dec-18 11:59 35.081117 -119.882275 345 4684ft 92kts
25-Dec-18 12:00 35.108853 -119.885299 1 4602ft 104kts
25-Dec-18 12:01 35.126661 -119.906250 317 4542ft 104kts
25-Dec-18 12:02 35.143871 -119.924713 324 4562ft 100kts
25-Dec-18 12:03 35.162467 -119.950554 311 4541ft 98kts
25-Dec-18 12:04 35.179002 -119.969069 328 4558ft 97kts
25-Dec-18 12:05 35.197198 -119.984780 327 4565ft 98kts
25-Dec-18 12:06 35.218826 -120.005911 321 4570ft 101kts
25-Dec-18 12:07 35.233693 -120.036377 307 4570ft 105kts
25-Dec-18 12:08 35.250633 -120.065214 311 4569ft 104kts
25-Dec-18 12:09 35.268550 -120.092916 315 4569ft 104kts
25-Dec-18 12:10 35.287328 -120.119374 317 4571ft 103kts
25-Dec-18 12:11 35.306833 -120.145561 318 4571ft 103kts
25-Dec-18 12:12 35.326126 -120.171857 316 4571ft 104kts
25-Dec-18 12:13 35.345490 -120.197735 316 4570ft 104kts
25-Dec-18 12:14 35.365469 -120.223872 316 4570ft 104kts
25-Dec-18 12:15 35.384654 -120.250526 313 4570ft 103kts
25-Dec-18 12:16 35.402758 -120.277959 317 4569ft 102kts
25-Dec-18 12:17 35.422798 -120.302664 317 4570ft 102kts
25-Dec-18 12:18 35.441835 -120.328388 318 4569ft 102kts
25-Dec-18 12:19 35.461761 -120.352970 317 4570ft 102kts
25-Dec-18 12:20 35.481603 -120.379503 319 4507ft 107kts
25-Dec-18 12:21 35.502247 -120.405181 316 4506ft 106kts
25-Dec-18 12:22 35.522375 -120.432074 319 4505ft 106kts
25-Dec-18 12:23 35.543040 -120.457814 316 4505ft 106kts
25-Dec-18 12:24 35.562843 -120.484547 319 4505ft 106kts
25-Dec-18 12:25 35.583388 -120.509937 317 4505ft 106kts
25-Dec-18 12:26 35.603251 -120.537010 315 4496ft 106kts
25-Dec-18 12:27 35.622629 -120.564289 315 4495ft 106kts
25-Dec-18 12:28 35.643339 -120.589852 322 4496ft 105kts
25-Dec-18 12:29 35.664718 -120.613683 320 4496ft 105kts
25-Dec-18 12:30 35.688413 -120.633720 324 4496ft 104kts
25-Dec-18 12:31 35.711287 -120.655942 322 4496ft 104kts
25-Dec-18 12:32 35.734023 -120.678077 324 4496ft 104kts
25-Dec-18 12:33 35.757205 -120.699214 326 4496ft 104kts
25-Dec-18 12:34 35.780730 -120.719904 326 4496ft 104kts
25-Dec-18 12:35 35.804490 -120.740400 327 4496ft 104kts
25-Dec-18 12:36 35.828381 -120.760807 327 4496ft 104kts
25-Dec-18 12:37 35.852085 -120.780959 327 4496ft 104kts
25-Dec-18 12:38 35.875867 -120.801134 327 4496ft 104kts
25-Dec-18 12:39 35.899891 -120.821489 325 4493ft 104kts
25-Dec-18 12:40 35.923526 -120.841519 325 4486ft 102kts
25-Dec-18 12:41 35.946899 -120.861346 325 4486ft 102kts
25-Dec-18 12:42 35.968798 -120.883542 314 4486ft 102kts
25-Dec-18 12:43 35.989083 -120.908232 318 4486ft 102kts
25-Dec-18 12:44 36.010373 -120.930981 321 4486ft 102kts
25-Dec-18 12:45 36.032186 -120.952709 322 4486ft 101kts
25-Dec-18 12:46 36.054583 -120.974186 323 4485ft 101kts
25-Dec-18 12:47 36.077197 -120.995429 323 4484ft 101kts
25-Dec-18 12:48 36.099866 -121.016332 327 4454ft 103kts
25-Dec-18 12:49 36.119958 -121.041188 317 4448ft 103kts
25-Dec-18 12:50 36.141019 -121.064864 319 4445ft 103kts
25-Dec-18 12:51 36.163117 -121.087620 320 4443ft 103kts
25-Dec-18 12:53 36.185356 -121.110002 320 4441ft 103kts
25-Dec-18 12:54 36.207975 -121.132224 320 4439ft 103kts
25-Dec-18 12:55 36.230506 -121.154089 320 4437ft 103kts
25-Dec-18 12:56 36.253447 -121.176212 320 4435ft 104kts
25-Dec-18 12:57 36.276303 -121.198186 320 4433ft 104kts
25-Dec-18 12:58 36.299130 -121.220106 320 4433ft 104kts
25-Dec-18 12:59 36.317799 -121.247029 311 4432ft 103kts
25-Dec-18 13:00 36.337673 -121.272523 315 4432ft 102kts
25-Dec-18 13:01 36.356381 -121.298675 308 4430ft 102kts
25-Dec-18 13:02 36.380495 -121.317345 316 4432ft 102kts
25-Dec-18 13:03 36.401495 -121.340122 319 4431ft 102kts
25-Dec-18 13:04 36.422638 -121.364053 317 4432ft 101kts
25-Dec-18 13:05 36.434479 -121.395607 274 4432ft 105kts
25-Dec-18 13:06 36.444659 -121.428103 306 4431ft 101kts
25-Dec-18 13:07 36.462171 -121.455357 314 4436ft 101kts
25-Dec-18 13:08 36.482180 -121.479485 314 4444ft 99kts
25-Dec-18 13:08 36.498870 -121.499214 315 4449ft 100kts
25-Dec-18 13:10 36.522396 -121.526610 315 4453ft 100kts
25-Dec-18 13:11 36.543102 -121.550450 315 4454ft 100kts
25-Dec-18 13:11 36.557246 -121.573237 297 4455ft 100kts
25-Dec-18 13:13 36.564048 -121.612508 269 4457ft 103kts
25-Dec-18 13:13 36.556802 -121.641746 258 4465ft 104kts
25-Dec-18 13:14 36.548647 -121.673262 261 4241ft 91kts
25-Dec-18 13:15 36.546582 -121.704671 277 3672ft 91kts
25-Dec-18 13:16 36.551795 -121.733439 286 3019ft 84kts
25-Dec-18 13:18 36.561600 -121.763711 291 2254ft 79kts
25-Dec-18 13:18 36.568097 -121.782182 290 1843ft 70kts
25-Dec-18 13:20 36.575925 -121.805953 287 1124ft 60kts
25-Dec-18 13:20 36.580424 -121.820459 288 682ft 54kts
25-Dec-18 13:21 36.586071 -121.837238 289 170ft 33kts
25-Dec-18 13:22 36.587155 -121.838605 21 170ft 5kts
25-Dec-18 13:23 36.587527 -121.838673 293 170ft 0kts

Navigation Log

Ident Type
Flight plan parsing failed, navigation log unavailable